sensor_id;sensor_type;location;lat;lon;timestamp;pressure;altitude;pressure_sealevel;temperature;humidity
71716;BME280;59568;52.128;5.434;2022-10-16T00:01:29;101110.81;;;11.16;91.24
71716;BME280;59568;52.128;5.434;2022-10-16T00:03:58;101103.47;;;11.18;91.36
71716;BME280;59568;52.128;5.434;2022-10-16T00:06:26;101102.41;;;11.19;91.06
71716;BME280;59568;52.128;5.434;2022-10-16T00:08:54;101104.25;;;11.19;91.09
71716;BME280;59568;52.128;5.434;2022-10-16T00:11:29;101100.84;;;11.18;91.12
71716;BME280;59568;52.128;5.434;2022-10-16T00:13:59;101101.91;;;11.17;91.22
71716;BME280;59568;52.128;5.434;2022-10-16T00:16:27;101103.47;;;11.18;91.29
71716;BME280;59568;52.128;5.434;2022-10-16T00:18:55;101109.00;;;11.17;91.24
71716;BME280;59568;52.128;5.434;2022-10-16T00:21:25;101106.38;;;11.17;91.20
71716;BME280;59568;52.128;5.434;2022-10-16T00:23:55;101106.66;;;11.15;91.25
71716;BME280;59568;52.128;5.434;2022-10-16T00:26:22;101108.50;;;11.15;91.24
71716;BME280;59568;52.128;5.434;2022-10-16T00:28:50;101114.50;;;11.15;91.30
71716;BME280;59568;52.128;5.434;2022-10-16T00:31:20;101115.00;;;11.17;91.38
71716;BME280;59568;52.128;5.434;2022-10-16T00:33:48;101116.25;;;11.20;91.38
71716;BME280;59568;52.128;5.434;2022-10-16T00:36:18;101110.75;;;11.22;91.42
71716;BME280;59568;52.128;5.434;2022-10-16T00:38:45;101106.03;;;11.24;91.22
71716;BME280;59568;52.128;5.434;2022-10-16T00:41:16;101100.78;;;11.24;91.53
71716;BME280;59568;52.128;5.434;2022-10-16T00:46:23;101103.91;;;11.26;91.88
71716;BME280;59568;52.128;5.434;2022-10-16T00:51:24;101107.00;;;11.28;91.48
71716;BME280;59568;52.128;5.434;2022-10-16T00:53:52;101112.75;;;11.30;91.30
71716;BME280;59568;52.128;5.434;2022-10-16T00:56:19;101105.66;;;11.30;91.46
71716;BME280;59568;52.128;5.434;2022-10-16T00:58:46;101110.34;;;11.33;91.19
71716;BME280;59568;52.128;5.434;2022-10-16T01:01:13;101106.66;;;11.34;91.70
71716;BME280;59568;52.128;5.434;2022-10-16T01:03:40;101098.53;;;11.36;91.63
71716;BME280;59568;52.128;5.434;2022-10-16T01:06:22;101101.09;;;11.41;91.31
71716;BME280;59568;52.128;5.434;2022-10-16T01:09:02;101116.19;;;11.44;91.67
71716;BME280;59568;52.128;5.434;2022-10-16T01:12:09;101118.25;;;11.47;91.66
71716;BME280;59568;52.128;5.434;2022-10-16T01:20:30;101123.34;;;11.57;91.45
71716;BME280;59568;52.128;5.434;2022-10-16T01:23:10;101108.13;;;11.59;91.66
71716;BME280;59568;52.128;5.434;2022-10-16T01:31:46;101103.28;;;11.67;91.40
71716;BME280;59568;52.128;5.434;2022-10-16T01:34:20;101110.09;;;11.68;91.52
71716;BME280;59568;52.128;5.434;2022-10-16T01:36:55;101106.41;;;11.69;91.57
71716;BME280;59568;52.128;5.434;2022-10-16T01:39:28;101106.91;;;11.71;91.33
71716;BME280;59568;52.128;5.434;2022-10-16T01:42:06;101104.00;;;11.72;91.63
71716;BME280;59568;52.128;5.434;2022-10-16T01:44:34;101117.59;;;11.74;91.35
71716;BME280;59568;52.128;5.434;2022-10-16T01:47:04;101112.84;;;11.76;91.42
71716;BME280;59568;52.128;5.434;2022-10-16T01:49:33;101104.22;;;11.76;91.27
71716;BME280;59568;52.128;5.434;2022-10-16T01:52:11;101100.81;;;11.75;91.55
71716;BME280;59568;52.128;5.434;2022-10-16T01:54:42;101092.66;;;11.77;91.43
71716;BME280;59568;52.128;5.434;2022-10-16T01:57:11;101104.13;;;11.81;91.17
71716;BME280;59568;52.128;5.434;2022-10-16T01:59:44;101100.44;;;11.82;91.04
71716;BME280;59568;52.128;5.434;2022-10-16T02:02:15;101102.50;;;11.85;91.59
71716;BME280;59568;52.128;5.434;2022-10-16T02:04:46;101108.78;;;11.84;91.18
71716;BME280;59568;52.128;5.434;2022-10-16T02:07:16;101091.53;;;11.83;91.44
71716;BME280;59568;52.128;5.434;2022-10-16T02:09:45;101092.31;;;11.84;91.12
71716;BME280;59568;52.128;5.434;2022-10-16T02:12:26;101100.94;;;11.84;91.12
71716;BME280;59568;52.128;5.434;2022-10-16T02:14:54;101101.44;;;11.86;91.47
71716;BME280;59568;52.128;5.434;2022-10-16T02:17:22;101106.66;;;11.86;91.13
71716;BME280;59568;52.128;5.434;2022-10-16T02:19:51;101106.66;;;11.86;91.19
71716;BME280;59568;52.128;5.434;2022-10-16T02:24:51;101103.28;;;11.86;91.14
71716;BME280;59568;52.128;5.434;2022-10-16T02:30:04;101113.47;;;11.87;91.28
71716;BME280;59568;52.128;5.434;2022-10-16T02:32:37;101112.66;;;11.87;91.12
71716;BME280;59568;52.128;5.434;2022-10-16T02:35:06;101114.53;;;11.86;91.08
71716;BME280;59568;52.128;5.434;2022-10-16T02:37:34;101108.78;;;11.84;91.01
71716;BME280;59568;52.128;5.434;2022-10-16T02:40:02;101109.88;;;11.83;91.12
71716;BME280;59568;52.128;5.434;2022-10-16T02:42:36;101113.53;;;11.82;91.24
71716;BME280;59568;52.128;5.434;2022-10-16T02:45:08;101122.25;;;11.77;91.07
71716;BME280;59568;52.128;5.434;2022-10-16T02:47:35;101119.72;;;11.72;91.16
71716;BME280;59568;52.128;5.434;2022-10-16T02:50:03;101123.69;;;11.70;91.08
71716;BME280;59568;52.128;5.434;2022-10-16T02:52:30;101117.94;;;11.68;91.22
71716;BME280;59568;52.128;5.434;2022-10-16T02:54:57;101122.97;;;11.64;91.61
71716;BME280;59568;52.128;5.434;2022-10-16T02:57:24;101126.84;;;11.67;91.52
71716;BME280;59568;52.128;5.434;2022-10-16T02:59:51;101127.16;;;11.65;91.47
71716;BME280;59568;52.128;5.434;2022-10-16T03:02:18;101125.59;;;11.64;91.68
71716;BME280;59568;52.128;5.434;2022-10-16T03:04:45;101130.56;;;11.66;91.76
71716;BME280;59568;52.128;5.434;2022-10-16T03:07:12;101136.56;;;11.66;91.77
71716;BME280;59568;52.128;5.434;2022-10-16T03:09:39;101129.97;;;11.69;92.03
71716;BME280;59568;52.128;5.434;2022-10-16T03:12:06;101131.53;;;11.70;91.85
71716;BME280;59568;52.128;5.434;2022-10-16T03:14:33;101114.25;;;11.69;91.52
71716;BME280;59568;52.128;5.434;2022-10-16T03:17:00;101116.59;;;11.70;91.91
71716;BME280;59568;52.128;5.434;2022-10-16T03:19:27;101119.50;;;11.69;92.08
71716;BME280;59568;52.128;5.434;2022-10-16T03:21:54;101113.75;;;11.67;91.99
71716;BME280;59568;52.128;5.434;2022-10-16T03:24:21;101120.56;;;11.68;91.94
71716;BME280;59568;52.128;5.434;2022-10-16T03:26:48;101125.31;;;11.66;91.82
71716;BME280;59568;52.128;5.434;2022-10-16T03:29:15;101130.06;;;11.64;92.18
71716;BME280;59568;52.128;5.434;2022-10-16T03:31:42;101127.72;;;11.62;92.06
71716;BME280;59568;52.128;5.434;2022-10-16T03:34:09;101135.06;;;11.60;91.99
71716;BME280;59568;52.128;5.434;2022-10-16T03:36:36;101135.06;;;11.60;92.12
71716;BME280;59568;52.128;5.434;2022-10-16T03:39:03;101139.81;;;11.58;92.15
71716;BME280;59568;52.128;5.434;2022-10-16T03:41:30;101143.22;;;11.58;92.21
71716;BME280;59568;52.128;5.434;2022-10-16T03:43:57;101139.81;;;11.58;92.12
71716;BME280;59568;52.128;5.434;2022-10-16T03:46:24;101145.34;;;11.56;92.24
71716;BME280;59568;52.128;5.434;2022-10-16T03:48:50;101142.22;;;11.54;92.16
71716;BME280;59568;52.128;5.434;2022-10-16T03:51:17;101144.63;;;11.51;92.24
71716;BME280;59568;52.128;5.434;2022-10-16T03:53:44;101140.25;;;11.46;92.27
71716;BME280;59568;52.128;5.434;2022-10-16T03:56:11;101143.13;;;11.45;92.48
71716;BME280;59568;52.128;5.434;2022-10-16T03:58:38;101146.06;;;11.43;92.42
71716;BME280;59568;52.128;5.434;2022-10-16T04:01:05;101152.34;;;11.42;92.20
71716;BME280;59568;52.128;5.434;2022-10-16T04:03:32;101153.41;;;11.41;92.44
71716;BME280;59568;52.128;5.434;2022-10-16T04:05:59;101154.94;;;11.42;92.52
71716;BME280;59568;52.128;5.434;2022-10-16T04:08:26;101157.06;;;11.40;92.61
71716;BME280;59568;52.128;5.434;2022-10-16T04:10:53;101164.91;;;11.40;92.61
71716;BME280;59568;52.128;5.434;2022-10-16T04:13:20;101162.88;;;11.37;92.59
71716;BME280;59568;52.128;5.434;2022-10-16T04:15:47;101165.78;;;11.35;92.59
71716;BME280;59568;52.128;5.434;2022-10-16T04:18:13;101163.44;;;11.34;92.71
71716;BME280;59568;52.128;5.434;2022-10-16T04:20:40;101173.13;;;11.33;92.84
71716;BME280;59568;52.128;5.434;2022-10-16T04:23:07;101183.88;;;11.32;92.59
71716;BME280;59568;52.128;5.434;2022-10-16T04:25:34;101189.09;;;11.32;92.67
71716;BME280;59568;52.128;5.434;2022-10-16T04:28:02;101183.38;;;11.30;92.74
71716;BME280;59568;52.128;5.434;2022-10-16T04:30:29;101192.78;;;11.31;92.79
71716;BME280;59568;52.128;5.434;2022-10-16T04:32:55;101191.22;;;11.30;92.92
71716;BME280;59568;52.128;5.434;2022-10-16T04:35:22;101200.91;;;11.29;92.84
71716;BME280;59568;52.128;5.434;2022-10-16T04:37:49;101194.88;;;11.29;93.09
71716;BME280;59568;52.128;5.434;2022-10-16T04:40:17;101195.97;;;11.28;92.93
71716;BME280;59568;52.128;5.434;2022-10-16T04:42:44;101207.47;;;11.27;92.81
71716;BME280;59568;52.128;5.434;2022-10-16T04:45:11;101206.41;;;11.28;93.08
71716;BME280;59568;52.128;5.434;2022-10-16T04:47:42;101208.25;;;11.27;92.92
71716;BME280;59568;52.128;5.434;2022-10-16T04:50:09;101213.19;;;11.29;93.25
71716;BME280;59568;52.128;5.434;2022-10-16T04:52:36;101211.88;;;11.31;93.05
71716;BME280;59568;52.128;5.434;2022-10-16T04:55:03;101221.28;;;11.32;93.16
71716;BME280;59568;52.128;5.434;2022-10-16T04:57:30;101207.41;;;11.32;93.24
71716;BME280;59568;52.128;5.434;2022-10-16T04:59:57;101227.31;;;11.33;93.12
71716;BME280;59568;52.128;5.434;2022-10-16T05:02:24;101224.97;;;11.31;93.11
71716;BME280;59568;52.128;5.434;2022-10-16T05:04:51;101225.50;;;11.28;93.09
71716;BME280;59568;52.128;5.434;2022-10-16T05:07:18;101236.47;;;11.30;93.13
71716;BME280;59568;52.128;5.434;2022-10-16T05:09:45;101237.81;;;11.28;93.19
71716;BME280;59568;52.128;5.434;2022-10-16T05:12:12;101233.63;;;11.27;92.97
71716;BME280;59568;52.128;5.434;2022-10-16T05:14:40;101238.34;;;11.25;93.18
71716;BME280;59568;52.128;5.434;2022-10-16T05:17:07;101244.16;;;11.22;93.13
71716;BME280;59568;52.128;5.434;2022-10-16T05:19:34;101253.06;;;11.20;93.13
71716;BME280;59568;52.128;5.434;2022-10-16T05:22:01;101257.00;;;11.18;93.21
71716;BME280;59568;52.128;5.434;2022-10-16T05:24:28;101251.28;;;11.16;93.39
71716;BME280;59568;52.128;5.434;2022-10-16T05:26:55;101262.03;;;11.14;93.25
71716;BME280;59568;52.128;5.434;2022-10-16T05:29:22;101264.94;;;11.13;93.18
71716;BME280;59568;52.128;5.434;2022-10-16T05:31:53;101264.44;;;11.11;93.29
71716;BME280;59568;52.128;5.434;2022-10-16T05:34:20;101262.09;;;11.09;93.17
71716;BME280;59568;52.128;5.434;2022-10-16T05:36:47;101268.09;;;11.10;93.32
71716;BME280;59568;52.128;5.434;2022-10-16T05:39:15;101279.31;;;11.10;93.57
71716;BME280;59568;52.128;5.434;2022-10-16T05:41:42;101276.72;;;11.10;93.51
71716;BME280;59568;52.128;5.434;2022-10-16T05:44:10;101286.91;;;11.12;93.49
71716;BME280;59568;52.128;5.434;2022-10-16T05:46:37;101291.09;;;11.13;93.60
71716;BME280;59568;52.128;5.434;2022-10-16T05:49:04;101297.59;;;11.15;93.82
71716;BME280;59568;52.128;5.434;2022-10-16T05:51:31;101301.75;;;11.16;93.74
71716;BME280;59568;52.128;5.434;2022-10-16T05:53:58;101299.94;;;11.17;93.71
71716;BME280;59568;52.128;5.434;2022-10-16T05:56:25;101311.41;;;11.21;93.96
71716;BME280;59568;52.128;5.434;2022-10-16T05:58:52;101322.06;;;11.25;93.79
71716;BME280;59568;52.128;5.434;2022-10-16T06:01:19;101326.75;;;11.28;94.04
71716;BME280;59568;52.128;5.434;2022-10-16T06:03:51;101322.31;;;11.28;93.78
71716;BME280;59568;52.128;5.434;2022-10-16T06:06:21;101319.41;;;11.30;93.90
71716;BME280;59568;52.128;5.434;2022-10-16T06:08:49;101322.25;;;11.33;93.99
71716;BME280;59568;52.128;5.434;2022-10-16T06:11:21;101317.53;;;11.35;93.76
71716;BME280;59568;52.128;5.434;2022-10-16T06:13:50;101331.88;;;11.38;93.57
71716;BME280;59568;52.128;5.434;2022-10-16T06:16:17;101329.78;;;11.40;93.87
71716;BME280;59568;52.128;5.434;2022-10-16T06:18:45;101328.44;;;11.43;93.81
71716;BME280;59568;52.128;5.434;2022-10-16T06:21:18;101336.78;;;11.45;93.49
71716;BME280;59568;52.128;5.434;2022-10-16T06:23:46;101342.50;;;11.47;93.77
71716;BME280;59568;52.128;5.434;2022-10-16T06:26:18;101354.28;;;11.49;93.80
71716;BME280;59568;52.128;5.434;2022-10-16T06:28:46;101365.75;;;11.53;93.94
71716;BME280;59568;52.128;5.434;2022-10-16T06:31:14;101359.94;;;11.56;93.54
71716;BME280;59568;52.128;5.434;2022-10-16T06:33:41;101364.63;;;11.59;93.64
71716;BME280;59568;52.128;5.434;2022-10-16T06:36:11;101363.28;;;11.62;93.67
71716;BME280;59568;52.128;5.434;2022-10-16T06:38:38;101352.81;;;11.62;93.71
71716;BME280;59568;52.128;5.434;2022-10-16T06:41:06;101364.88;;;11.63;93.59
71716;BME280;59568;52.128;5.434;2022-10-16T06:43:34;101370.88;;;11.64;93.61
71716;BME280;59568;52.128;5.434;2022-10-16T06:46:05;101377.66;;;11.65;93.67
71716;BME280;59568;52.128;5.434;2022-10-16T06:48:32;101375.34;;;11.63;93.66
71716;BME280;59568;52.128;5.434;2022-10-16T06:51:11;101392.81;;;11.68;93.73
71716;BME280;59568;52.128;5.434;2022-10-16T06:53:41;101386.00;;;11.67;93.63
71716;BME280;59568;52.128;5.434;2022-10-16T06:56:29;101394.09;;;11.70;93.52
71716;BME280;59568;52.128;5.434;2022-10-16T06:58:58;101393.81;;;11.72;93.90
71716;BME280;59568;52.128;5.434;2022-10-16T07:01:26;101398.47;;;11.75;93.93
71716;BME280;59568;52.128;5.434;2022-10-16T07:03:53;101399.47;;;11.79;93.60
71716;BME280;59568;52.128;5.434;2022-10-16T07:06:23;101396.06;;;11.84;93.53
71716;BME280;59568;52.128;5.434;2022-10-16T07:08:50;101385.56;;;11.84;93.70
71716;BME280;59568;52.128;5.434;2022-10-16T07:11:20;101386.56;;;11.88;93.48
71716;BME280;59568;52.128;5.434;2022-10-16T07:13:48;101400.13;;;11.95;93.54
71716;BME280;59568;52.128;5.434;2022-10-16T07:16:23;101403.47;;;12.01;93.53
71716;BME280;59568;52.128;5.434;2022-10-16T07:18:50;101399.50;;;12.03;93.32
71716;BME280;59568;52.128;5.434;2022-10-16T07:21:21;101418.56;;;12.09;93.27
71716;BME280;59568;52.128;5.434;2022-10-16T07:23:54;101410.41;;;12.10;93.08
71716;BME280;59568;52.128;5.434;2022-10-16T07:26:22;101425.88;;;12.12;92.94
71716;BME280;59568;52.128;5.434;2022-10-16T07:28:49;101425.59;;;12.13;92.83
71716;BME280;59568;52.128;5.434;2022-10-16T07:31:18;101439.69;;;12.17;92.64
71716;BME280;59568;52.128;5.434;2022-10-16T07:33:46;101435.72;;;12.20;92.82
71716;BME280;59568;52.128;5.434;2022-10-16T07:36:16;101436.72;;;12.24;92.59
71716;BME280;59568;52.128;5.434;2022-10-16T07:38:44;101448.69;;;12.30;92.63
71716;BME280;59568;52.128;5.434;2022-10-16T07:41:16;101449.19;;;12.32;92.29
71716;BME280;59568;52.128;5.434;2022-10-16T07:43:52;101451.75;;;12.37;92.11
71716;BME280;59568;52.128;5.434;2022-10-16T07:46:20;101458.53;;;12.38;91.70
71716;BME280;59568;52.128;5.434;2022-10-16T07:48:48;101468.25;;;12.38;91.62
71716;BME280;59568;52.128;5.434;2022-10-16T07:51:19;101475.34;;;12.37;91.55
71716;BME280;59568;52.128;5.434;2022-10-16T07:53:47;101481.41;;;12.33;91.47
71716;BME280;59568;52.128;5.434;2022-10-16T07:56:15;101496.34;;;12.32;91.51
71716;BME280;59568;52.128;5.434;2022-10-16T07:58:43;101505.00;;;12.33;91.38
71716;BME280;59568;52.128;5.434;2022-10-16T08:01:12;101499.47;;;12.34;91.63
71716;BME280;59568;52.128;5.434;2022-10-16T08:03:44;101505.72;;;12.38;91.94
71716;BME280;59568;52.128;5.434;2022-10-16T08:06:12;101503.81;;;12.44;91.59
71716;BME280;59568;52.128;5.434;2022-10-16T08:08:39;101517.66;;;12.50;91.75
71716;BME280;59568;52.128;5.434;2022-10-16T08:11:06;101503.56;;;12.46;91.72
71716;BME280;59568;52.128;5.434;2022-10-16T08:13:35;101504.81;;;12.48;91.73
71716;BME280;59568;52.128;5.434;2022-10-16T08:16:02;101507.84;;;12.55;91.79
71716;BME280;59568;52.128;5.434;2022-10-16T08:18:38;101521.19;;;12.59;91.62
71716;BME280;59568;52.128;5.434;2022-10-16T08:21:06;101519.88;;;12.62;91.36
71716;BME280;59568;52.128;5.434;2022-10-16T08:23:34;101520.50;;;12.72;91.27
71716;BME280;59568;52.128;5.434;2022-10-16T08:26:04;101522.34;;;12.72;90.82
71716;BME280;59568;52.128;5.434;2022-10-16T08:28:32;101518.59;;;12.78;91.05
71716;BME280;59568;52.128;5.434;2022-10-16T08:33:33;101533.84;;;12.95;90.75
71716;BME280;59568;52.128;5.434;2022-10-16T08:36:03;101535.41;;;12.96;90.57
71716;BME280;59568;52.128;5.434;2022-10-16T08:38:31;101533.28;;;12.98;90.48
71716;BME280;59568;52.128;5.434;2022-10-16T08:49:02;101555.53;;;13.19;89.63
71716;BME280;59568;52.128;5.434;2022-10-16T08:51:35;101559.72;;;13.21;89.77
71716;BME280;59568;52.128;5.434;2022-10-16T08:56:46;101567.31;;;13.22;89.41
71716;BME280;59568;52.128;5.434;2022-10-16T08:59:14;101573.78;;;13.30;89.37
71716;BME280;59568;52.128;5.434;2022-10-16T09:01:49;101573.50;;;13.31;89.02
71716;BME280;59568;52.128;5.434;2022-10-16T09:07:05;101582.78;;;13.43;89.04
71716;BME280;59568;52.128;5.434;2022-10-16T09:12:52;101570.47;;;13.57;88.57
71716;BME280;59568;52.128;5.434;2022-10-16T09:15:31;101580.03;;;13.67;88.28
71716;BME280;59568;52.128;5.434;2022-10-16T09:18:15;101586.00;;;13.72;87.69
71716;BME280;59568;52.128;5.434;2022-10-16T09:20:59;101595.22;;;13.70;87.88
71716;BME280;59568;52.128;5.434;2022-10-16T09:23:34;101608.78;;;13.77;87.72
71716;BME280;59568;52.128;5.434;2022-10-16T09:26:03;101607.13;;;13.81;87.58
71716;BME280;59568;52.128;5.434;2022-10-16T09:28:30;101609.38;;;13.88;87.43
71716;BME280;59568;52.128;5.434;2022-10-16T09:30:57;101604.81;;;13.93;87.61
71716;BME280;59568;52.128;5.434;2022-10-16T09:33:29;101607.66;;;13.97;87.11
71716;BME280;59568;52.128;5.434;2022-10-16T09:35:57;101608.91;;;13.99;87.21
71716;BME280;59568;52.128;5.434;2022-10-16T09:38:33;101618.28;;;14.06;87.35
71716;BME280;59568;52.128;5.434;2022-10-16T09:41:15;101621.81;;;14.15;87.15
71716;BME280;59568;52.128;5.434;2022-10-16T09:46:36;101618.31;;;14.33;86.70
71716;BME280;59568;52.128;5.434;2022-10-16T09:49:18;101620.56;;;14.54;86.79
71716;BME280;59568;52.128;5.434;2022-10-16T09:51:47;101627.38;;;14.69;86.95
71716;BME280;59568;52.128;5.434;2022-10-16T09:54:20;101633.34;;;14.74;86.19
71716;BME280;59568;52.128;5.434;2022-10-16T09:56:48;101638.22;;;14.67;85.93
71716;BME280;59568;52.128;5.434;2022-10-16T09:59:21;101636.09;;;14.69;86.31
71716;BME280;59568;52.128;5.434;2022-10-16T10:01:54;101638.09;;;14.86;86.57
71716;BME280;59568;52.128;5.434;2022-10-16T10:04:23;101645.41;;;15.03;85.92
71716;BME280;59568;52.128;5.434;2022-10-16T10:06:56;101641.47;;;15.14;84.97
71716;BME280;59568;52.128;5.434;2022-10-16T10:09:35;101643.50;;;15.31;83.10
71716;BME280;59568;52.128;5.434;2022-10-16T10:12:05;101646.84;;;15.46;83.58
71716;BME280;59568;52.128;5.434;2022-10-16T10:14:46;101651.84;;;15.70;83.47
71716;BME280;59568;52.128;5.434;2022-10-16T10:19:50;101643.38;;;16.04;81.36
71716;BME280;59568;52.128;5.434;2022-10-16T10:22:22;101649.16;;;16.15;81.19
71716;BME280;59568;52.128;5.434;2022-10-16T10:28:09;101660.63;;;16.10;80.37
71716;BME280;59568;52.128;5.434;2022-10-16T10:36:37;101669.22;;;16.56;77.60
71716;BME280;59568;52.128;5.434;2022-10-16T10:39:19;101668.13;;;16.57;77.61
71716;BME280;59568;52.128;5.434;2022-10-16T10:53:39;101687.56;;;16.30;77.36
71716;BME280;59568;52.128;5.434;2022-10-16T10:56:16;101677.38;;;16.46;76.73
71716;BME280;59568;52.128;5.434;2022-10-16T11:05:14;101687.25;;;16.31;75.28
71716;BME280;59568;52.128;5.434;2022-10-16T11:07:27;101689.34;;;16.12;76.08
71716;BME280;59568;52.128;5.434;2022-10-16T11:10:07;101698.41;;;16.28;76.13
71716;BME280;59568;52.128;5.434;2022-10-16T11:12:43;101705.59;;;16.36;73.95
71716;BME280;59568;52.128;5.434;2022-10-16T11:15:18;101702.38;;;16.17;74.70
71716;BME280;59568;52.128;5.434;2022-10-16T11:17:53;101711.94;;;16.35;73.57
71716;BME280;59568;52.128;5.434;2022-10-16T11:20:27;101709.22;;;16.18;75.21
71716;BME280;59568;52.128;5.434;2022-10-16T11:23:02;101710.31;;;16.48;74.25
71716;BME280;59568;52.128;5.434;2022-10-16T11:25:34;101717.91;;;16.50;74.36
71716;BME280;59568;52.128;5.434;2022-10-16T11:28:49;101722.56;;;16.53;73.38
71716;BME280;59568;52.128;5.434;2022-10-16T11:31:24;101724.38;;;16.44;73.62
71716;BME280;59568;52.128;5.434;2022-10-16T11:39:19;101718.72;;;16.59;75.35
71716;BME280;59568;52.128;5.434;2022-10-16T11:42:10;101722.91;;;17.00;73.63
71716;BME280;59568;52.128;5.434;2022-10-16T11:44:57;101722.53;;;17.50;73.34
71716;BME280;59568;52.128;5.434;2022-10-16T11:47:40;101724.09;;;17.77;71.66
71716;BME280;59568;52.128;5.434;2022-10-16T11:53:21;101722.88;;;17.84;71.19
71716;BME280;59568;52.128;5.434;2022-10-16T11:55:50;101728.44;;;17.73;70.04
71716;BME280;59568;52.128;5.434;2022-10-16T11:58:30;101724.41;;;17.85;68.54
71716;BME280;59568;52.128;5.434;2022-10-16T12:04:14;101735.47;;;17.95;67.89
71716;BME280;59568;52.128;5.434;2022-10-16T12:06:44;101732.47;;;18.06;68.42
71716;BME280;59568;52.128;5.434;2022-10-16T12:09:22;101736.34;;;18.08;66.72
71716;BME280;59568;52.128;5.434;2022-10-16T12:11:49;101738.53;;;18.15;66.91
71716;BME280;59568;52.128;5.434;2022-10-16T12:17:01;101747.06;;;18.29;66.25
71716;BME280;59568;52.128;5.434;2022-10-16T12:19:30;101735.13;;;18.06;67.52
71716;BME280;59568;52.128;5.434;2022-10-16T12:22:00;101739.19;;;17.94;66.46
71716;BME280;59568;52.128;5.434;2022-10-16T12:24:35;101740.25;;;18.11;67.76
71716;BME280;59568;52.128;5.434;2022-10-16T12:27:05;101735.22;;;18.27;67.27
71716;BME280;59568;52.128;5.434;2022-10-16T12:29:42;101742.34;;;18.44;68.03
71716;BME280;59568;52.128;5.434;2022-10-16T12:32:29;101745.16;;;18.47;66.30
71716;BME280;59568;52.128;5.434;2022-10-16T12:35:25;101752.41;;;18.59;65.59
71716;BME280;59568;52.128;5.434;2022-10-16T12:37:53;101757.53;;;18.64;66.34
71716;BME280;59568;52.128;5.434;2022-10-16T12:40:29;101749.88;;;18.71;65.99
71716;BME280;59568;52.128;5.434;2022-10-16T12:42:58;101749.69;;;18.76;65.91
71716;BME280;59568;52.128;5.434;2022-10-16T12:45:33;101758.91;;;18.70;64.17
71716;BME280;59568;52.128;5.434;2022-10-16T12:48:03;101754.06;;;18.72;64.52
71716;BME280;59568;52.128;5.434;2022-10-16T12:50:38;101746.03;;;18.60;63.96
71716;BME280;59568;52.128;5.434;2022-10-16T12:53:26;101746.84;;;18.52;63.24
71716;BME280;59568;52.128;5.434;2022-10-16T12:59:01;101759.66;;;18.32;61.97
71716;BME280;59568;52.128;5.434;2022-10-16T13:02:36;101757.81;;;18.24;62.43
71716;BME280;59568;52.128;5.434;2022-10-16T13:22:48;101775.25;;;18.25;65.51
71716;BME280;59568;52.128;5.434;2022-10-16T13:25:32;101773.06;;;18.27;65.20
71716;BME280;59568;52.128;5.434;2022-10-16T13:28:05;101775.25;;;18.25;64.98
71716;BME280;59568;52.128;5.434;2022-10-16T13:30:53;101774.94;;;18.18;65.80
71716;BME280;59568;52.128;5.434;2022-10-16T13:33:36;101771.81;;;18.16;64.87
71716;BME280;59568;52.128;5.434;2022-10-16T13:36:04;101786.47;;;18.13;64.17
71716;BME280;59568;52.128;5.434;2022-10-16T13:38:34;101783.06;;;18.13;65.10
71716;BME280;59568;52.128;5.434;2022-10-16T13:41:05;101797.66;;;18.02;64.56
71716;BME280;59568;52.128;5.434;2022-10-16T13:46:14;101803.59;;;17.90;65.22
71716;BME280;59568;52.128;5.434;2022-10-16T13:48:41;101798.44;;;17.85;66.22
71716;BME280;59568;52.128;5.434;2022-10-16T13:51:17;101796.06;;;17.74;66.45
71716;BME280;59568;52.128;5.434;2022-10-16T13:53:45;101794.84;;;17.72;66.41
71716;BME280;59568;52.128;5.434;2022-10-16T13:56:19;101786.13;;;17.63;66.33
71716;BME280;59568;52.128;5.434;2022-10-16T13:58:58;101792.03;;;17.60;65.50
71716;BME280;59568;52.128;5.434;2022-10-16T14:01:29;101793.88;;;17.50;66.21
71716;BME280;59568;52.128;5.434;2022-10-16T14:04:04;101794.78;;;17.37;65.96
71716;BME280;59568;52.128;5.434;2022-10-16T14:06:33;101796.50;;;17.33;66.63
71716;BME280;59568;52.128;5.434;2022-10-16T14:09:06;101812.66;;;17.31;66.70
71716;BME280;59568;52.128;5.434;2022-10-16T14:11:46;101812.47;;;17.28;67.73
71716;BME280;59568;52.128;5.434;2022-10-16T14:14:14;101802.38;;;17.30;67.42
71716;BME280;59568;52.128;5.434;2022-10-16T14:16:42;101805.78;;;17.30;66.79
71716;BME280;59568;52.128;5.434;2022-10-16T14:19:30;101807.97;;;17.28;68.12
71716;BME280;59568;52.128;5.434;2022-10-16T14:21:59;101796.94;;;17.26;68.74
71716;BME280;59568;52.128;5.434;2022-10-16T14:24:33;101796.78;;;17.23;68.92
71716;BME280;59568;52.128;5.434;2022-10-16T14:27:01;101802.19;;;17.17;68.08
71716;BME280;59568;52.128;5.434;2022-10-16T14:29:29;101799.84;;;17.16;68.45
71716;BME280;59568;52.128;5.434;2022-10-16T14:32:04;101800.78;;;17.11;69.30
71716;BME280;59568;52.128;5.434;2022-10-16T14:34:34;101801.06;;;17.10;70.20
71716;BME280;59568;52.128;5.434;2022-10-16T14:37:23;101804.03;;;17.08;70.23
71716;BME280;59568;52.128;5.434;2022-10-16T14:39:54;101797.03;;;17.04;70.29
71716;BME280;59568;52.128;5.434;2022-10-16T14:42:24;101802.59;;;17.02;70.28
71716;BME280;59568;52.128;5.434;2022-10-16T14:44:52;101810.38;;;16.99;69.62
71716;BME280;59568;52.128;5.434;2022-10-16T14:47:22;101800.84;;;16.89;69.54
71716;BME280;59568;52.128;5.434;2022-10-16T14:49:54;101807.53;;;16.86;69.91
71716;BME280;59568;52.128;5.434;2022-10-16T14:52:22;101805.28;;;16.80;69.50
71716;BME280;59568;52.128;5.434;2022-10-16T14:54:50;101806.97;;;16.75;69.91
71716;BME280;59568;52.128;5.434;2022-10-16T14:57:23;101805.41;;;16.74;70.62
71716;BME280;59568;52.128;5.434;2022-10-16T14:59:51;101812.25;;;16.75;71.32
71716;BME280;59568;52.128;5.434;2022-10-16T15:02:27;101817.81;;;16.74;71.85